sensor_id;sensor_type;location;lat;lon;timestamp;P1;durP1;ratioP1;P2;durP2;ratioP2
60354;SDS011;46198;51.464;-0.066;2022-09-21T00:01:41;8.68;;;4.68;;
60354;SDS011;46198;51.464;-0.066;2022-09-21T00:04:09;11.75;;;4.60;;
60354;SDS011;46198;51.464;-0.066;2022-09-21T00:06:40;10.52;;;4.90;;
60354;SDS011;46198;51.464;-0.066;2022-09-21T00:09:08;8.30;;;5.05;;
60354;SDS011;46198;51.464;-0.066;2022-09-21T00:11:37;9.43;;;5.25;;
60354;SDS011;46198;51.464;-0.066;2022-09-21T00:14:06;8.82;;;4.68;;
60354;SDS011;46198;51.464;-0.066;2022-09-21T00:16:37;9.50;;;4.88;;
60354;SDS011;46198;51.464;-0.066;2022-09-21T00:19:06;7.43;;;4.47;;
60354;SDS011;46198;51.464;-0.066;2022-09-21T00:21:35;9.00;;;4.90;;
60354;SDS011;46198;51.464;-0.066;2022-09-21T00:24:06;7.97;;;4.67;;
60354;SDS011;46198;51.464;-0.066;2022-09-21T00:26:35;10.18;;;5.45;;
60354;SDS011;46198;51.464;-0.066;2022-09-21T00:29:04;9.07;;;5.10;;
60354;SDS011;46198;51.464;-0.066;2022-09-21T00:31:33;7.60;;;5.07;;
60354;SDS011;46198;51.464;-0.066;2022-09-21T00:34:02;8.05;;;5.63;;
60354;SDS011;46198;51.464;-0.066;2022-09-21T00:36:33;10.52;;;4.63;;
60354;SDS011;46198;51.464;-0.066;2022-09-21T00:39:02;7.80;;;4.80;;
60354;SDS011;46198;51.464;-0.066;2022-09-21T00:41:33;10.65;;;4.88;;
60354;SDS011;46198;51.464;-0.066;2022-09-21T00:47:00;10.20;;;4.90;;
60354;SDS011;46198;51.464;-0.066;2022-09-21T00:49:31;8.65;;;5.05;;
60354;SDS011;46198;51.464;-0.066;2022-09-21T00:52:02;8.52;;;4.80;;
60354;SDS011;46198;51.464;-0.066;2022-09-21T00:54:35;10.85;;;4.97;;
60354;SDS011;46198;51.464;-0.066;2022-09-21T00:57:10;8.82;;;4.65;;
60354;SDS011;46198;51.464;-0.066;2022-09-21T00:59:40;9.40;;;4.82;;
60354;SDS011;46198;51.464;-0.066;2022-09-21T01:02:11;8.68;;;4.88;;
60354;SDS011;46198;51.464;-0.066;2022-09-21T01:04:40;10.05;;;5.22;;
60354;SDS011;46198;51.464;-0.066;2022-09-21T01:07:10;8.13;;;4.60;;
60354;SDS011;46198;51.464;-0.066;2022-09-21T01:09:43;8.75;;;4.75;;
60354;SDS011;46198;51.464;-0.066;2022-09-21T01:12:19;9.63;;;5.22;;
60354;SDS011;46198;51.464;-0.066;2022-09-21T01:15:07;10.02;;;5.03;;
60354;SDS011;46198;51.464;-0.066;2022-09-21T01:17:51;8.18;;;4.97;;
60354;SDS011;46198;51.464;-0.066;2022-09-21T01:20:34;8.48;;;4.22;;
60354;SDS011;46198;51.464;-0.066;2022-09-21T01:23:24;10.65;;;4.88;;
60354;SDS011;46198;51.464;-0.066;2022-09-21T01:26:12;10.88;;;5.10;;
60354;SDS011;46198;51.464;-0.066;2022-09-21T01:29:09;10.35;;;4.80;;
60354;SDS011;46198;51.464;-0.066;2022-09-21T01:31:45;7.40;;;4.57;;
60354;SDS011;46198;51.464;-0.066;2022-09-21T01:34:23;10.68;;;4.65;;
60354;SDS011;46198;51.464;-0.066;2022-09-21T01:36:55;7.47;;;4.78;;
60354;SDS011;46198;51.464;-0.066;2022-09-21T01:41:56;8.93;;;4.47;;
60354;SDS011;46198;51.464;-0.066;2022-09-21T01:44:28;7.25;;;5.50;;
60354;SDS011;46198;51.464;-0.066;2022-09-21T01:46:59;6.78;;;4.60;;
60354;SDS011;46198;51.464;-0.066;2022-09-21T01:49:30;13.80;;;5.53;;
60354;SDS011;46198;51.464;-0.066;2022-09-21T01:52:05;9.65;;;4.95;;
60354;SDS011;46198;51.464;-0.066;2022-09-21T01:54:40;8.38;;;4.68;;
60354;SDS011;46198;51.464;-0.066;2022-09-21T01:57:17;8.07;;;5.30;;
60354;SDS011;46198;51.464;-0.066;2022-09-21T01:59:53;8.63;;;4.95;;
60354;SDS011;46198;51.464;-0.066;2022-09-21T02:02:28;10.05;;;4.80;;
60354;SDS011;46198;51.464;-0.066;2022-09-21T02:05:04;9.45;;;4.65;;
60354;SDS011;46198;51.464;-0.066;2022-09-21T02:07:33;7.90;;;4.40;;
60354;SDS011;46198;51.464;-0.066;2022-09-21T02:10:04;9.13;;;5.28;;
60354;SDS011;46198;51.464;-0.066;2022-09-21T02:12:36;8.23;;;4.38;;
60354;SDS011;46198;51.464;-0.066;2022-09-21T02:15:07;7.88;;;4.43;;
60354;SDS011;46198;51.464;-0.066;2022-09-21T02:17:39;7.80;;;4.35;;
60354;SDS011;46198;51.464;-0.066;2022-09-21T02:20:18;10.38;;;5.22;;
60354;SDS011;46198;51.464;-0.066;2022-09-21T02:22:53;9.00;;;4.60;;
60354;SDS011;46198;51.464;-0.066;2022-09-21T02:25:31;7.60;;;5.00;;
60354;SDS011;46198;51.464;-0.066;2022-09-21T02:28:10;8.30;;;4.70;;
60354;SDS011;46198;51.464;-0.066;2022-09-21T02:30:48;8.80;;;4.65;;
60354;SDS011;46198;51.464;-0.066;2022-09-21T02:33:24;8.73;;;4.43;;
60354;SDS011;46198;51.464;-0.066;2022-09-21T02:35:59;7.47;;;4.53;;
60354;SDS011;46198;51.464;-0.066;2022-09-21T02:38:34;9.38;;;4.50;;
60354;SDS011;46198;51.464;-0.066;2022-09-21T02:41:07;10.70;;;4.82;;
60354;SDS011;46198;51.464;-0.066;2022-09-21T02:43:43;7.22;;;4.38;;
60354;SDS011;46198;51.464;-0.066;2022-09-21T02:46:17;6.55;;;4.28;;
60354;SDS011;46198;51.464;-0.066;2022-09-21T02:48:52;16.05;;;4.80;;
60354;SDS011;46198;51.464;-0.066;2022-09-21T02:51:24;7.50;;;4.07;;
60354;SDS011;46198;51.464;-0.066;2022-09-21T02:53:56;6.43;;;4.43;;
60354;SDS011;46198;51.464;-0.066;2022-09-21T02:56:28;6.18;;;4.80;;
60354;SDS011;46198;51.464;-0.066;2022-09-21T02:58:59;6.70;;;4.47;;
60354;SDS011;46198;51.464;-0.066;2022-09-21T03:01:31;6.55;;;4.55;;
60354;SDS011;46198;51.464;-0.066;2022-09-21T03:04:01;5.90;;;3.97;;
60354;SDS011;46198;51.464;-0.066;2022-09-21T03:06:29;8.60;;;4.80;;
60354;SDS011;46198;51.464;-0.066;2022-09-21T03:08:59;6.82;;;3.92;;
60354;SDS011;46198;51.464;-0.066;2022-09-21T03:11:27;9.18;;;4.00;;
60354;SDS011;46198;51.464;-0.066;2022-09-21T03:13:55;8.43;;;4.63;;
60354;SDS011;46198;51.464;-0.066;2022-09-21T03:16:25;6.97;;;3.97;;
60354;SDS011;46198;51.464;-0.066;2022-09-21T03:18:55;7.88;;;4.72;;
60354;SDS011;46198;51.464;-0.066;2022-09-21T03:21:23;10.00;;;4.80;;
60354;SDS011;46198;51.464;-0.066;2022-09-21T03:23:52;9.73;;;4.25;;
60354;SDS011;46198;51.464;-0.066;2022-09-21T03:26:20;7.25;;;4.25;;
60354;SDS011;46198;51.464;-0.066;2022-09-21T03:28:49;5.63;;;4.43;;
60354;SDS011;46198;51.464;-0.066;2022-09-21T03:31:20;9.05;;;4.30;;
60354;SDS011;46198;51.464;-0.066;2022-09-21T03:33:49;7.88;;;4.55;;
60354;SDS011;46198;51.464;-0.066;2022-09-21T03:36:19;7.65;;;4.38;;
60354;SDS011;46198;51.464;-0.066;2022-09-21T03:38:47;7.68;;;4.70;;
60354;SDS011;46198;51.464;-0.066;2022-09-21T03:41:16;5.97;;;4.07;;
60354;SDS011;46198;51.464;-0.066;2022-09-21T03:43:45;8.57;;;4.40;;
60354;SDS011;46198;51.464;-0.066;2022-09-21T03:46:13;8.30;;;4.50;;
60354;SDS011;46198;51.464;-0.066;2022-09-21T03:48:42;5.88;;;4.10;;
60354;SDS011;46198;51.464;-0.066;2022-09-21T03:51:13;7.68;;;4.32;;
60354;SDS011;46198;51.464;-0.066;2022-09-21T03:53:44;8.00;;;4.05;;
60354;SDS011;46198;51.464;-0.066;2022-09-21T03:56:12;6.10;;;4.05;;
60354;SDS011;46198;51.464;-0.066;2022-09-21T03:58:40;5.65;;;3.63;;
60354;SDS011;46198;51.464;-0.066;2022-09-21T04:01:09;7.13;;;4.18;;
60354;SDS011;46198;51.464;-0.066;2022-09-21T04:03:37;6.70;;;3.90;;
60354;SDS011;46198;51.464;-0.066;2022-09-21T04:06:07;6.78;;;3.90;;
60354;SDS011;46198;51.464;-0.066;2022-09-21T04:08:35;8.45;;;4.07;;
60354;SDS011;46198;51.464;-0.066;2022-09-21T04:11:09;7.07;;;3.90;;
60354;SDS011;46198;51.464;-0.066;2022-09-21T04:13:37;7.40;;;3.88;;
60354;SDS011;46198;51.464;-0.066;2022-09-21T04:16:08;6.50;;;4.20;;
60354;SDS011;46198;51.464;-0.066;2022-09-21T04:18:37;7.53;;;4.43;;
60354;SDS011;46198;51.464;-0.066;2022-09-21T04:21:05;10.27;;;4.13;;
60354;SDS011;46198;51.464;-0.066;2022-09-21T04:23:34;6.68;;;4.43;;
60354;SDS011;46198;51.464;-0.066;2022-09-21T04:26:02;6.88;;;4.43;;
60354;SDS011;46198;51.464;-0.066;2022-09-21T04:28:31;9.30;;;4.03;;
60354;SDS011;46198;51.464;-0.066;2022-09-21T04:31:00;5.85;;;4.07;;
60354;SDS011;46198;51.464;-0.066;2022-09-21T04:33:29;7.38;;;4.13;;
60354;SDS011;46198;51.464;-0.066;2022-09-21T04:35:57;10.80;;;4.97;;
60354;SDS011;46198;51.464;-0.066;2022-09-21T04:38:25;5.97;;;4.05;;
60354;SDS011;46198;51.464;-0.066;2022-09-21T04:40:54;11.23;;;3.88;;
60354;SDS011;46198;51.464;-0.066;2022-09-21T04:43:23;8.65;;;3.95;;
60354;SDS011;46198;51.464;-0.066;2022-09-21T04:45:56;5.53;;;3.55;;
60354;SDS011;46198;51.464;-0.066;2022-09-21T04:48:24;10.67;;;4.37;;
60354;SDS011;46198;51.464;-0.066;2022-09-21T04:50:52;7.50;;;5.00;;
60354;SDS011;46198;51.464;-0.066;2022-09-21T04:53:21;9.52;;;4.45;;
60354;SDS011;46198;51.464;-0.066;2022-09-21T04:55:49;8.15;;;4.43;;
60354;SDS011;46198;51.464;-0.066;2022-09-21T04:58:18;7.35;;;4.07;;
60354;SDS011;46198;51.464;-0.066;2022-09-21T05:00:50;7.10;;;4.30;;
60354;SDS011;46198;51.464;-0.066;2022-09-21T05:03:20;5.70;;;4.47;;
60354;SDS011;46198;51.464;-0.066;2022-09-21T05:05:52;6.93;;;4.50;;
60354;SDS011;46198;51.464;-0.066;2022-09-21T05:08:21;6.60;;;4.00;;
60354;SDS011;46198;51.464;-0.066;2022-09-21T05:11:04;9.32;;;3.95;;
60354;SDS011;46198;51.464;-0.066;2022-09-21T05:13:33;8.93;;;4.63;;
60354;SDS011;46198;51.464;-0.066;2022-09-21T05:16:01;5.65;;;4.20;;
60354;SDS011;46198;51.464;-0.066;2022-09-21T05:18:32;7.07;;;4.30;;
60354;SDS011;46198;51.464;-0.066;2022-09-21T05:23:32;8.32;;;4.10;;
60354;SDS011;46198;51.464;-0.066;2022-09-21T05:26:01;7.25;;;4.32;;
60354;SDS011;46198;51.464;-0.066;2022-09-21T05:28:30;8.45;;;4.60;;
60354;SDS011;46198;51.464;-0.066;2022-09-21T05:31:09;7.22;;;4.50;;
60354;SDS011;46198;51.464;-0.066;2022-09-21T05:33:50;5.68;;;3.78;;
60354;SDS011;46198;51.464;-0.066;2022-09-21T05:36:26;8.70;;;4.35;;
60354;SDS011;46198;51.464;-0.066;2022-09-21T05:39:04;6.35;;;3.70;;
60354;SDS011;46198;51.464;-0.066;2022-09-21T05:41:34;8.18;;;4.00;;
60354;SDS011;46198;51.464;-0.066;2022-09-21T05:44:03;8.25;;;4.63;;
60354;SDS011;46198;51.464;-0.066;2022-09-21T05:46:35;7.18;;;4.40;;
60354;SDS011;46198;51.464;-0.066;2022-09-21T05:49:11;7.93;;;4.50;;
60354;SDS011;46198;51.464;-0.066;2022-09-21T05:51:53;7.72;;;4.20;;
60354;SDS011;46198;51.464;-0.066;2022-09-21T05:54:33;5.82;;;3.88;;
60354;SDS011;46198;51.464;-0.066;2022-09-21T05:57:14;9.40;;;4.35;;
60354;SDS011;46198;51.464;-0.066;2022-09-21T05:59:58;7.57;;;4.38;;
60354;SDS011;46198;51.464;-0.066;2022-09-21T06:02:43;6.75;;;4.70;;
60354;SDS011;46198;51.464;-0.066;2022-09-21T06:05:23;6.38;;;4.20;;
60354;SDS011;46198;51.464;-0.066;2022-09-21T06:10:20;7.22;;;3.88;;
60354;SDS011;46198;51.464;-0.066;2022-09-21T06:12:50;7.70;;;4.60;;
60354;SDS011;46198;51.464;-0.066;2022-09-21T06:15:19;5.75;;;4.10;;
60354;SDS011;46198;51.464;-0.066;2022-09-21T06:17:47;7.30;;;4.10;;
60354;SDS011;46198;51.464;-0.066;2022-09-21T06:20:16;9.25;;;4.80;;
60354;SDS011;46198;51.464;-0.066;2022-09-21T06:22:46;7.60;;;4.88;;
60354;SDS011;46198;51.464;-0.066;2022-09-21T06:25:18;10.95;;;4.55;;
60354;SDS011;46198;51.464;-0.066;2022-09-21T06:27:47;7.68;;;4.75;;
60354;SDS011;46198;51.464;-0.066;2022-09-21T06:30:16;8.63;;;4.53;;
60354;SDS011;46198;51.464;-0.066;2022-09-21T06:32:44;7.28;;;4.72;;
60354;SDS011;46198;51.464;-0.066;2022-09-21T06:35:13;8.93;;;5.22;;
60354;SDS011;46198;51.464;-0.066;2022-09-21T06:37:43;7.50;;;4.43;;
60354;SDS011;46198;51.464;-0.066;2022-09-21T06:40:13;7.70;;;4.60;;
60354;SDS011;46198;51.464;-0.066;2022-09-21T06:42:41;7.17;;;4.60;;
60354;SDS011;46198;51.464;-0.066;2022-09-21T06:45:10;8.68;;;4.75;;
60354;SDS011;46198;51.464;-0.066;2022-09-21T06:47:38;9.48;;;5.13;;
60354;SDS011;46198;51.464;-0.066;2022-09-21T06:50:13;7.35;;;4.55;;
60354;SDS011;46198;51.464;-0.066;2022-09-21T06:52:44;8.25;;;4.68;;
60354;SDS011;46198;51.464;-0.066;2022-09-21T06:55:14;7.50;;;4.18;;
60354;SDS011;46198;51.464;-0.066;2022-09-21T06:57:43;13.07;;;6.25;;
60354;SDS011;46198;51.464;-0.066;2022-09-21T07:00:13;8.15;;;4.88;;
60354;SDS011;46198;51.464;-0.066;2022-09-21T07:05:21;9.02;;;4.80;;
60354;SDS011;46198;51.464;-0.066;2022-09-21T07:07:55;11.63;;;4.78;;
60354;SDS011;46198;51.464;-0.066;2022-09-21T07:10:28;11.32;;;5.20;;
60354;SDS011;46198;51.464;-0.066;2022-09-21T07:13:00;6.22;;;4.47;;
60354;SDS011;46198;51.464;-0.066;2022-09-21T07:15:31;7.32;;;5.03;;
60354;SDS011;46198;51.464;-0.066;2022-09-21T07:18:00;8.38;;;4.60;;
60354;SDS011;46198;51.464;-0.066;2022-09-21T07:20:37;7.82;;;4.43;;
60354;SDS011;46198;51.464;-0.066;2022-09-21T07:23:08;6.35;;;4.68;;
60354;SDS011;46198;51.464;-0.066;2022-09-21T07:25:41;8.05;;;5.00;;
60354;SDS011;46198;51.464;-0.066;2022-09-21T07:28:13;7.65;;;4.93;;
60354;SDS011;46198;51.464;-0.066;2022-09-21T07:30:42;8.75;;;5.18;;
60354;SDS011;46198;51.464;-0.066;2022-09-21T07:33:10;8.48;;;5.07;;
60354;SDS011;46198;51.464;-0.066;2022-09-21T07:35:39;8.20;;;5.00;;
60354;SDS011;46198;51.464;-0.066;2022-09-21T07:38:07;9.85;;;5.47;;
60354;SDS011;46198;51.464;-0.066;2022-09-21T07:40:43;8.25;;;5.20;;
60354;SDS011;46198;51.464;-0.066;2022-09-21T07:47:47;8.57;;;4.63;;
60354;SDS011;46198;51.464;-0.066;2022-09-21T07:50:15;8.20;;;4.75;;
60354;SDS011;46198;51.464;-0.066;2022-09-21T07:52:50;12.77;;;5.10;;
60354;SDS011;46198;51.464;-0.066;2022-09-21T07:55:19;9.18;;;4.40;;
60354;SDS011;46198;51.464;-0.066;2022-09-21T08:04:45;9.73;;;5.07;;
60354;SDS011;46198;51.464;-0.066;2022-09-21T08:07:18;7.70;;;4.68;;
60354;SDS011;46198;51.464;-0.066;2022-09-21T08:09:49;11.93;;;5.38;;
60354;SDS011;46198;51.464;-0.066;2022-09-21T08:15:19;8.50;;;5.07;;
60354;SDS011;46198;51.464;-0.066;2022-09-21T08:18:08;10.90;;;5.40;;
60354;SDS011;46198;51.464;-0.066;2022-09-21T08:20:38;8.80;;;4.93;;
60354;SDS011;46198;51.464;-0.066;2022-09-21T08:23:07;9.18;;;5.53;;
60354;SDS011;46198;51.464;-0.066;2022-09-21T08:25:38;13.82;;;5.45;;
60354;SDS011;46198;51.464;-0.066;2022-09-21T08:28:08;9.32;;;4.47;;
60354;SDS011;46198;51.464;-0.066;2022-09-21T08:30:43;7.68;;;4.85;;
60354;SDS011;46198;51.464;-0.066;2022-09-21T08:33:12;7.50;;;4.95;;
60354;SDS011;46198;51.464;-0.066;2022-09-21T08:35:41;10.45;;;5.28;;
60354;SDS011;46198;51.464;-0.066;2022-09-21T08:38:20;10.50;;;5.25;;
60354;SDS011;46198;51.464;-0.066;2022-09-21T08:40:50;9.98;;;5.63;;
60354;SDS011;46198;51.464;-0.066;2022-09-21T08:43:26;11.85;;;5.68;;
60354;SDS011;46198;51.464;-0.066;2022-09-21T08:46:04;11.98;;;6.45;;
60354;SDS011;46198;51.464;-0.066;2022-09-21T08:48:38;11.43;;;5.60;;
60354;SDS011;46198;51.464;-0.066;2022-09-21T08:51:14;10.80;;;5.88;;
60354;SDS011;46198;51.464;-0.066;2022-09-21T08:53:49;8.23;;;5.03;;
60354;SDS011;46198;51.464;-0.066;2022-09-21T08:56:21;11.88;;;5.45;;
60354;SDS011;46198;51.464;-0.066;2022-09-21T08:59:12;9.30;;;5.20;;
60354;SDS011;46198;51.464;-0.066;2022-09-21T09:01:48;13.23;;;5.75;;
60354;SDS011;46198;51.464;-0.066;2022-09-21T09:04:27;8.65;;;5.57;;
60354;SDS011;46198;51.464;-0.066;2022-09-21T09:07:09;11.68;;;6.50;;
60354;SDS011;46198;51.464;-0.066;2022-09-21T09:09:53;9.88;;;5.95;;
60354;SDS011;46198;51.464;-0.066;2022-09-21T09:12:51;8.77;;;5.20;;
60354;SDS011;46198;51.464;-0.066;2022-09-21T09:15:32;10.98;;;5.88;;
60354;SDS011;46198;51.464;-0.066;2022-09-21T09:18:15;15.52;;;6.85;;
60354;SDS011;46198;51.464;-0.066;2022-09-21T09:20:52;9.73;;;5.80;;
60354;SDS011;46198;51.464;-0.066;2022-09-21T09:23:25;10.50;;;5.22;;
60354;SDS011;46198;51.464;-0.066;2022-09-21T09:28:28;14.55;;;6.88;;
60354;SDS011;46198;51.464;-0.066;2022-09-21T09:31:04;11.35;;;5.53;;
60354;SDS011;46198;51.464;-0.066;2022-09-21T09:33:44;11.27;;;5.40;;
60354;SDS011;46198;51.464;-0.066;2022-09-21T09:36:18;12.10;;;5.90;;
60354;SDS011;46198;51.464;-0.066;2022-09-21T09:39:10;8.65;;;5.90;;
60354;SDS011;46198;51.464;-0.066;2022-09-21T09:42:01;9.98;;;5.72;;
60354;SDS011;46198;51.464;-0.066;2022-09-21T09:45:05;12.20;;;5.55;;
60354;SDS011;46198;51.464;-0.066;2022-09-21T09:47:58;8.63;;;5.47;;
60354;SDS011;46198;51.464;-0.066;2022-09-21T09:50:37;10.13;;;5.78;;
60354;SDS011;46198;51.464;-0.066;2022-09-21T09:53:09;8.85;;;5.35;;
60354;SDS011;46198;51.464;-0.066;2022-09-21T09:55:42;8.88;;;5.50;;
60354;SDS011;46198;51.464;-0.066;2022-09-21T09:58:16;12.98;;;5.32;;
60354;SDS011;46198;51.464;-0.066;2022-09-21T10:00:46;8.02;;;5.50;;
60354;SDS011;46198;51.464;-0.066;2022-09-21T10:03:19;14.77;;;6.10;;
60354;SDS011;46198;51.464;-0.066;2022-09-21T10:05:50;15.35;;;6.68;;
60354;SDS011;46198;51.464;-0.066;2022-09-21T10:08:43;11.35;;;6.03;;
60354;SDS011;46198;51.464;-0.066;2022-09-21T10:11:13;10.45;;;6.28;;
60354;SDS011;46198;51.464;-0.066;2022-09-21T10:13:44;10.35;;;5.63;;
60354;SDS011;46198;51.464;-0.066;2022-09-21T10:16:14;10.75;;;5.80;;
60354;SDS011;46198;51.464;-0.066;2022-09-21T10:18:47;8.65;;;5.63;;
60354;SDS011;46198;51.464;-0.066;2022-09-21T10:21:20;9.05;;;5.22;;
60354;SDS011;46198;51.464;-0.066;2022-09-21T10:23:51;11.85;;;5.38;;
60354;SDS011;46198;51.464;-0.066;2022-09-21T10:26:23;10.77;;;5.65;;
60354;SDS011;46198;51.464;-0.066;2022-09-21T10:28:58;8.07;;;5.65;;
60354;SDS011;46198;51.464;-0.066;2022-09-21T10:31:28;14.82;;;5.65;;
60354;SDS011;46198;51.464;-0.066;2022-09-21T10:34:05;9.77;;;4.95;;
60354;SDS011;46198;51.464;-0.066;2022-09-21T10:36:40;10.32;;;5.15;;
60354;SDS011;46198;51.464;-0.066;2022-09-21T10:39:23;7.22;;;4.85;;
60354;SDS011;46198;51.464;-0.066;2022-09-21T10:41:53;7.40;;;4.50;;
60354;SDS011;46198;51.464;-0.066;2022-09-21T10:44:26;8.02;;;4.38;;
60354;SDS011;46198;51.464;-0.066;2022-09-21T10:47:01;7.25;;;4.32;;
60354;SDS011;46198;51.464;-0.066;2022-09-21T10:49:43;6.38;;;4.05;;
60354;SDS011;46198;51.464;-0.066;2022-09-21T10:52:17;6.85;;;4.10;;
60354;SDS011;46198;51.464;-0.066;2022-09-21T10:54:49;10.48;;;4.43;;
60354;SDS011;46198;51.464;-0.066;2022-09-21T10:57:21;6.03;;;3.83;;
60354;SDS011;46198;51.464;-0.066;2022-09-21T10:59:50;11.15;;;3.88;;
60354;SDS011;46198;51.464;-0.066;2022-09-21T11:02:26;7.60;;;4.55;;
60354;SDS011;46198;51.464;-0.066;2022-09-21T11:05:03;4.57;;;3.92;;
60354;SDS011;46198;51.464;-0.066;2022-09-21T11:07:40;7.05;;;3.75;;
60354;SDS011;46198;51.464;-0.066;2022-09-21T11:10:17;6.97;;;3.65;;
60354;SDS011;46198;51.464;-0.066;2022-09-21T11:13:02;5.30;;;3.50;;
60354;SDS011;46198;51.464;-0.066;2022-09-21T11:15:45;9.60;;;4.03;;
60354;SDS011;46198;51.464;-0.066;2022-09-21T11:18:19;7.85;;;3.70;;
60354;SDS011;46198;51.464;-0.066;2022-09-21T11:20:54;14.93;;;4.57;;
60354;SDS011;46198;51.464;-0.066;2022-09-21T11:23:38;7.55;;;4.00;;
60354;SDS011;46198;51.464;-0.066;2022-09-21T11:26:14;7.32;;;4.00;;
60354;SDS011;46198;51.464;-0.066;2022-09-21T11:28:49;7.90;;;4.68;;
60354;SDS011;46198;51.464;-0.066;2022-09-21T11:34:22;7.57;;;3.47;;
60354;SDS011;46198;51.464;-0.066;2022-09-21T11:37:02;4.53;;;3.30;;
60354;SDS011;46198;51.464;-0.066;2022-09-21T11:39:45;4.20;;;3.05;;
60354;SDS011;46198;51.464;-0.066;2022-09-21T11:42:30;4.70;;;2.90;;
60354;SDS011;46198;51.464;-0.066;2022-09-21T11:45:09;8.13;;;3.15;;
60354;SDS011;46198;51.464;-0.066;2022-09-21T11:47:57;3.97;;;2.20;;
60354;SDS011;46198;51.464;-0.066;2022-09-21T11:53:13;3.97;;;2.55;;
60354;SDS011;46198;51.464;-0.066;2022-09-21T11:56:00;2.58;;;1.90;;
60354;SDS011;46198;51.464;-0.066;2022-09-21T11:58:36;3.83;;;2.08;;
60354;SDS011;46198;51.464;-0.066;2022-09-21T12:01:14;2.95;;;1.83;;
60354;SDS011;46198;51.464;-0.066;2022-09-21T12:04:12;3.08;;;2.28;;
60354;SDS011;46198;51.464;-0.066;2022-09-21T12:06:54;6.03;;;2.60;;
60354;SDS011;46198;51.464;-0.066;2022-09-21T12:12:42;3.90;;;2.60;;
60354;SDS011;46198;51.464;-0.066;2022-09-21T12:15:18;2.75;;;2.15;;
60354;SDS011;46198;51.464;-0.066;2022-09-21T12:17:53;3.60;;;2.70;;
60354;SDS011;46198;51.464;-0.066;2022-09-21T12:20:31;4.38;;;3.03;;
60354;SDS011;46198;51.464;-0.066;2022-09-21T12:23:10;4.15;;;2.67;;
60354;SDS011;46198;51.464;-0.066;2022-09-21T12:25:43;4.60;;;2.30;;
60354;SDS011;46198;51.464;-0.066;2022-09-21T12:28:19;6.57;;;2.78;;
60354;SDS011;46198;51.464;-0.066;2022-09-21T12:30:52;3.35;;;2.08;;
60354;SDS011;46198;51.464;-0.066;2022-09-21T12:33:30;4.18;;;2.40;;
60354;SDS011;46198;51.464;-0.066;2022-09-21T12:36:04;5.55;;;2.40;;
60354;SDS011;46198;51.464;-0.066;2022-09-21T12:38:39;3.75;;;2.40;;
60354;SDS011;46198;51.464;-0.066;2022-09-21T12:41:14;5.45;;;2.38;;
60354;SDS011;46198;51.464;-0.066;2022-09-21T12:43:48;3.95;;;2.17;;
60354;SDS011;46198;51.464;-0.066;2022-09-21T12:46:20;5.55;;;2.47;;
60354;SDS011;46198;51.464;-0.066;2022-09-21T12:48:52;2.67;;;2.03;;
60354;SDS011;46198;51.464;-0.066;2022-09-21T12:51:21;2.85;;;2.05;;
60354;SDS011;46198;51.464;-0.066;2022-09-21T12:53:56;2.03;;;1.63;;
60354;SDS011;46198;51.464;-0.066;2022-09-21T12:56:33;2.75;;;2.10;;
60354;SDS011;46198;51.464;-0.066;2022-09-21T12:59:15;2.53;;;2.08;;
60354;SDS011;46198;51.464;-0.066;2022-09-21T13:01:53;3.15;;;1.88;;
60354;SDS011;46198;51.464;-0.066;2022-09-21T13:04:35;3.25;;;2.35;;
60354;SDS011;46198;51.464;-0.066;2022-09-21T13:10:14;3.13;;;2.30;;
60354;SDS011;46198;51.464;-0.066;2022-09-21T13:12:50;2.17;;;1.75;;
60354;SDS011;46198;51.464;-0.066;2022-09-21T13:15:23;4.75;;;1.98;;
60354;SDS011;46198;51.464;-0.066;2022-09-21T13:17:57;3.75;;;2.00;;
60354;SDS011;46198;51.464;-0.066;2022-09-21T13:20:32;2.33;;;1.80;;
60354;SDS011;46198;51.464;-0.066;2022-09-21T13:23:02;2.70;;;2.08;;
60354;SDS011;46198;51.464;-0.066;2022-09-21T13:25:31;5.65;;;3.85;;
60354;SDS011;46198;51.464;-0.066;2022-09-21T13:28:04;3.63;;;2.40;;
60354;SDS011;46198;51.464;-0.066;2022-09-21T13:30:47;2.97;;;2.05;;
60354;SDS011;46198;51.464;-0.066;2022-09-21T13:33:30;2.63;;;2.17;;
60354;SDS011;46198;51.464;-0.066;2022-09-21T13:39:12;2.72;;;1.83;;
60354;SDS011;46198;51.464;-0.066;2022-09-21T13:41:42;4.78;;;2.00;;
60354;SDS011;46198;51.464;-0.066;2022-09-21T13:44:36;3.05;;;2.20;;
60354;SDS011;46198;51.464;-0.066;2022-09-21T13:47:10;2.40;;;1.95;;
60354;SDS011;46198;51.464;-0.066;2022-09-21T13:49:47;3.17;;;1.80;;
60354;SDS011;46198;51.464;-0.066;2022-09-21T13:52:26;2.85;;;2.45;;
60354;SDS011;46198;51.464;-0.066;2022-09-21T13:54:59;4.13;;;1.85;;
60354;SDS011;46198;51.464;-0.066;2022-09-21T13:57:33;3.03;;;2.33;;
60354;SDS011;46198;51.464;-0.066;2022-09-21T14:00:11;2.85;;;2.55;;
60354;SDS011;46198;51.464;-0.066;2022-09-21T14:02:59;2.25;;;1.90;;
60354;SDS011;46198;51.464;-0.066;2022-09-21T14:05:31;3.45;;;2.15;;
60354;SDS011;46198;51.464;-0.066;2022-09-21T14:08:04;2.40;;;2.20;;
60354;SDS011;46198;51.464;-0.066;2022-09-21T14:10:47;3.72;;;2.28;;
60354;SDS011;46198;51.464;-0.066;2022-09-21T14:13:27;3.47;;;2.42;;
60354;SDS011;46198;51.464;-0.066;2022-09-21T14:28:19;4.80;;;2.63;;
60354;SDS011;46198;51.464;-0.066;2022-09-21T14:31:01;2.60;;;2.30;;
60354;SDS011;46198;51.464;-0.066;2022-09-21T14:33:34;3.60;;;2.20;;
60354;SDS011;46198;51.464;-0.066;2022-09-21T14:36:13;3.00;;;2.33;;
60354;SDS011;46198;51.464;-0.066;2022-09-21T14:38:47;4.45;;;2.53;;
60354;SDS011;46198;51.464;-0.066;2022-09-21T14:41:21;4.95;;;2.45;;
60354;SDS011;46198;51.464;-0.066;2022-09-21T14:43:51;4.47;;;2.80;;
60354;SDS011;46198;51.464;-0.066;2022-09-21T14:49:24;2.83;;;2.17;;
60354;SDS011;46198;51.464;-0.066;2022-09-21T14:52:06;3.97;;;2.30;;
60354;SDS011;46198;51.464;-0.066;2022-09-21T14:54:59;3.05;;;2.55;;
60354;SDS011;46198;51.464;-0.066;2022-09-21T14:57:42;4.00;;;2.50;;
60354;SDS011;46198;51.464;-0.066;2022-09-21T15:00:34;3.15;;;2.35;;
60354;SDS011;46198;51.464;-0.066;2022-09-21T15:05:59;2.65;;;2.42;;
60354;SDS011;46198;51.464;-0.066;2022-09-21T15:09:00;2.95;;;2.38;;
60354;SDS011;46198;51.464;-0.066;2022-09-21T15:12:13;3.10;;;2.50;;
60354;SDS011;46198;51.464;-0.066;2022-09-21T15:14:45;4.72;;;2.55;;
60354;SDS011;46198;51.464;-0.066;2022-09-21T15:17:22;4.03;;;2.20;;
60354;SDS011;46198;51.464;-0.066;2022-09-21T15:19:55;4.13;;;2.53;;
60354;SDS011;46198;51.464;-0.066;2022-09-21T15:22:26;3.70;;;2.40;;
60354;SDS011;46198;51.464;-0.066;2022-09-21T15:24:55;4.00;;;2.80;;
60354;SDS011;46198;51.464;-0.066;2022-09-21T15:27:26;6.18;;;2.40;;
60354;SDS011;46198;51.464;-0.066;2022-09-21T15:29:59;3.90;;;2.60;;
60354;SDS011;46198;51.464;-0.066;2022-09-21T15:32:33;4.70;;;2.22;;
60354;SDS011;46198;51.464;-0.066;2022-09-21T15:35:04;3.58;;;2.05;;
60354;SDS011;46198;51.464;-0.066;2022-09-21T15:37:42;3.10;;;2.10;;
60354;SDS011;46198;51.464;-0.066;2022-09-21T15:40:16;2.33;;;1.95;;
60354;SDS011;46198;51.464;-0.066;2022-09-21T15:42:57;2.72;;;1.88;;
60354;SDS011;46198;51.464;-0.066;2022-09-21T15:45:27;3.17;;;2.42;;
60354;SDS011;46198;51.464;-0.066;2022-09-21T15:47:59;4.00;;;2.45;;
60354;SDS011;46198;51.464;-0.066;2022-09-21T15:50:28;5.60;;;2.40;;
60354;SDS011;46198;51.464;-0.066;2022-09-21T15:52:58;3.85;;;2.55;;
60354;SDS011;46198;51.464;-0.066;2022-09-21T15:55:30;3.00;;;1.98;;
60354;SDS011;46198;51.464;-0.066;2022-09-21T15:58:00;4.72;;;2.05;;
60354;SDS011;46198;51.464;-0.066;2022-09-21T16:00:30;2.58;;;1.75;;
60354;SDS011;46198;51.464;-0.066;2022-09-21T16:03:04;2.85;;;2.13;;
60354;SDS011;46198;51.464;-0.066;2022-09-21T16:05:41;3.08;;;1.80;;
60354;SDS011;46198;51.464;-0.066;2022-09-21T16:08:19;5.13;;;2.80;;
60354;SDS011;46198;51.464;-0.066;2022-09-21T16:11:12;17.10;;;12.52;;
60354;SDS011;46198;51.464;-0.066;2022-09-21T16:13:44;12.52;;;5.75;;
60354;SDS011;46198;51.464;-0.066;2022-09-21T16:16:31;6.72;;;3.13;;